Otis, Colorado
Current Conditions -  °F | °C
As of 10:53 PM on Friday 24 Oct 2014 (Local Time) from KAKO Reporting Station
Clear Clear  
Wind Chill: 58°   Ceiling: Unl
Heat Index: 58°   Visibility: 10mi
Dew Point: 24°   Wind: 9mph
Humidity: 27%   Direction: 200°SSW
Pressure: 30.17"   Gusts: NA
Location:  40.15°N, 102.96°W
Report Text: KAKO 250453Z AUTO 20008KT 10SM CLR 14/M04 A3017 RMK AO2 SLP173 T01441044
Loading
Personal Weather Stations






























Interactive Weather Map
Tropical Storm Tracking
New forecast layout! Learn more

10-Day Weather Forecast

Advertisements
Track Severe Weather on mobile